Time;durP1;ratioP1;P1;durP2;ratioP2;P2;SDS_P1;SDS_P2;PMS_P1;PMS_P2;Temp;Humidity;BMP_temperature;BMP_pressure;BME280_temperature;BME280_humidity;BME280_pressure;Samples;Min_cycle;Max_cycle;Signal;HPM_P1;HPM_P2
2024/04/02 00:00:07;;;;;;;1.02;0.80;;;11.20;99.90;;;;;;2094859;28;20028;-69
2024/04/02 00:01:09;;;;;;;2.30;0.98;;;11.20;99.90;;;;;;2093152;28;20039;-69
2024/04/02 00:02:11;;;;;;;2.65;0.90;;;11.20;99.90;;;;;;2095695;28;20062;-70
2024/04/02 00:03:13;;;;;;;2.25;0.90;;;11.20;99.90;;;;;;2095215;28;20024;-68
2024/04/02 00:04:15;;;;;;;1.67;0.93;;;11.20;99.90;;;;;;2094901;28;20392;-69
2024/04/02 00:05:15;;;;;;;1.45;1.05;;;11.20;99.90;;;;;;2087910;28;20025;-69
2024/04/02 00:06:16;;;;;;;2.28;0.80;;;11.20;99.90;;;;;;2087746;28;20040;-69
2024/04/02 00:07:16;;;;;;;1.75;0.90;;;11.20;99.90;;;;;;2093438;28;20032;-69
2024/04/02 00:08:17;;;;;;;2.92;0.95;;;11.20;99.90;;;;;;2086416;28;20720;-69
2024/04/02 00:09:18;;;;;;;1.92;0.90;;;11.20;99.90;;;;;;2086999;28;20108;-69
2024/04/02 00:10:19;;;;;;;3.05;1.00;;;11.20;99.90;;;;;;2095860;28;20028;-69
2024/04/02 00:11:19;;;;;;;3.67;0.80;;;11.20;99.90;;;;;;2093987;28;20032;-69
2024/04/02 00:12:20;;;;;;;1.50;0.88;;;11.20;99.90;;;;;;2095660;28;20041;-69
2024/04/02 00:13:21;;;;;;;3.90;1.00;;;11.20;99.90;;;;;;2094862;28;20500;-69
2024/04/02 00:14:21;;;;;;;2.67;0.88;;;11.20;99.90;;;;;;2096842;28;20032;-68
2024/04/02 00:15:22;;;;;;;2.42;1.50;;;11.30;99.90;;;;;;2095208;28;20069;-68
2024/04/02 00:16:22;;;;;;;2.42;0.90;;;11.20;99.90;;;;;;2093081;28;20070;-69
2024/04/02 00:17:23;;;;;;;3.47;1.10;;;11.20;99.90;;;;;;2094051;28;20040;-68
2024/04/02 00:18:24;;;;;;;1.02;0.80;;;11.30;99.90;;;;;;2094047;28;20078;-69
2024/04/02 00:19:25;;;;;;;4.32;1.48;;;11.30;99.90;;;;;;2095935;28;20531;-68
2024/04/02 00:20:26;;;;;;;3.75;0.90;;;11.30;99.90;;;;;;2093842;28;20410;-70
2024/04/02 00:21:30;;;;;;;2.78;0.98;;;11.30;99.90;;;;;;2093465;28;20115;-68
2024/04/02 00:22:30;;;;;;;4.57;0.90;;;11.30;99.90;;;;;;2093159;28;20017;-68
2024/04/02 00:23:31;;;;;;;1.90;1.02;;;11.30;99.90;;;;;;2096175;28;20347;-70
2024/04/02 00:24:31;;;;;;;2.58;1.10;;;11.30;99.90;;;;;;2095374;28;20358;-68
2024/04/02 00:25:34;;;;;;;3.05;1.05;;;11.30;99.90;;;;;;2094852;28;20029;-69
2024/04/02 00:26:34;;;;;;;2.85;0.85;;;11.30;99.90;;;;;;2096112;28;20368;-69
2024/04/02 00:27:38;;;;;;;2.10;0.70;;;11.30;99.90;;;;;;2094556;28;20029;-68
2024/04/02 00:28:41;;;;;;;1.67;1.00;;;11.30;99.90;;;;;;2095875;28;20025;-68
2024/04/02 00:29:44;;;;;;;1.20;0.85;;;11.30;99.90;;;;;;2094698;28;20137;-68
2024/04/02 00:30:45;;;;;;;2.90;1.10;;;11.30;99.90;;;;;;2093838;28;20528;-68
2024/04/02 00:31:45;;;;;;;2.90;0.90;;;11.30;99.90;;;;;;2095479;28;20365;-69
2024/04/02 00:32:46;;;;;;;2.95;1.30;;;11.30;99.90;;;;;;2094738;28;20060;-69
2024/04/02 00:33:47;;;;;;;3.20;1.15;;;11.30;99.90;;;;;;2095288;28;20062;-69
2024/04/02 00:34:48;;;;;;;2.20;1.00;;;11.40;99.90;;;;;;2095865;28;20040;-69
2024/04/02 00:35:58;;;;;;;2.03;0.73;;;11.40;99.90;;;;;;2093767;28;20473;-69
2024/04/02 00:36:59;;;;;;;2.72;1.00;;;11.40;99.90;;;;;;2095533;28;20028;-68
2024/04/02 00:38:01;;;;;;;2.40;0.80;;;11.30;99.90;;;;;;2095167;28;20031;-69
2024/04/02 00:39:03;;;;;;;2.88;1.10;;;11.40;99.90;;;;;;2095528;28;20119;-69
2024/04/02 00:40:04;;;;;;;2.35;0.98;;;11.40;99.90;;;;;;2092463;28;20032;-69
2024/04/02 00:41:04;;;;;;;1.77;0.88;;;11.40;99.90;;;;;;2094451;28;20029;-68
2024/04/02 00:42:05;;;;;;;2.13;0.90;;;11.40;99.90;;;;;;2093710;28;20056;-68
2024/04/02 00:43:06;;;;;;;1.75;0.85;;;11.40;99.90;;;;;;2094290;28;20085;-69
2024/04/02 00:44:09;;;;;;;1.55;0.70;;;11.40;99.90;;;;;;2095209;28;20120;-68
2024/04/02 00:45:11;;;;;;;1.90;0.82;;;11.40;99.90;;;;;;2093824;28;20025;-69
2024/04/02 00:46:12;;;;;;;0.90;0.75;;;11.40;99.90;;;;;;2093237;28;20431;-69
2024/04/02 00:47:13;;;;;;;6.47;0.90;;;11.40;99.90;;;;;;2094518;28;20097;-69
2024/04/02 00:48:14;;;;;;;2.22;0.80;;;11.40;99.90;;;;;;2094405;28;20033;-68
2024/04/02 00:49:15;;;;;;;3.60;0.80;;;11.40;99.90;;;;;;2094276;28;20028;-70
2024/04/02 00:50:15;;;;;;;9.43;0.95;;;11.40;99.90;;;;;;2094243;28;20476;-70
2024/04/02 00:51:16;;;;;;;1.83;0.93;;;11.40;99.90;;;;;;2093609;28;20025;-70
2024/04/02 00:52:16;;;;;;;2.45;0.80;;;11.40;99.90;;;;;;2091207;28;20400;-68
2024/04/02 00:53:20;;;;;;;2.92;0.85;;;11.40;99.90;;;;;;2095310;28;20044;-68
2024/04/02 00:54:20;;;;;;;2.28;0.95;;;11.40;99.90;;;;;;2094623;28;20058;-68
2024/04/02 00:55:21;;;;;;;2.55;0.98;;;11.40;99.90;;;;;;2096171;28;20512;-69
2024/04/02 00:56:22;;;;;;;2.38;0.80;;;11.40;99.90;;;;;;2092550;28;20025;-68
2024/04/02 00:57:22;;;;;;;2.42;0.90;;;11.40;99.90;;;;;;2094898;28;20087;-68
2024/04/02 00:58:24;;;;;;;3.05;0.80;;;11.40;99.90;;;;;;2093178;28;20037;-70
2024/04/02 00:59:25;;;;;;;1.92;0.90;;;11.40;99.90;;;;;;2094040;28;20033;-68
2024/04/02 01:00:26;;;;;;;1.73;0.80;;;11.40;99.90;;;;;;2094619;28;20023;-68
2024/04/02 01:01:27;;;;;;;3.92;1.00;;;11.40;99.90;;;;;;2094329;28;20060;-68
2024/04/02 01:02:27;;;;;;;3.17;0.90;;;11.40;99.90;;;;;;2095090;28;20032;-67
2024/04/02 01:03:28;;;;;;;1.33;0.73;;;11.40;99.90;;;;;;2093981;28;20021;-68
2024/04/02 01:04:29;;;;;;;1.50;0.63;;;11.30;99.90;;;;;;2094950;28;20478;-68
2024/04/02 01:05:34;;;;;;;2.40;0.70;;;11.30;99.90;;;;;;2096054;28;20386;-68
2024/04/02 01:06:35;;;;;;;2.53;0.93;;;11.30;99.90;;;;;;2094226;28;20093;-68
2024/04/02 01:07:39;;;;;;;1.65;0.75;;;11.30;99.90;;;;;;2092436;28;20020;-67
2024/04/02 01:08:39;;;;;;;1.52;1.00;;;11.30;99.90;;;;;;2093607;28;20017;-68
2024/04/02 01:09:41;;;;;;;3.35;0.70;;;11.40;99.90;;;;;;2093746;28;20104;-68
2024/04/02 01:10:42;;;;;;;1.88;1.00;;;11.30;99.90;;;;;;2093501;28;20024;-68
2024/04/02 01:11:45;;;;;;;3.60;1.08;;;11.30;99.90;;;;;;2094874;28;20025;-69
2024/04/02 01:12:45;;;;;;;1.25;0.80;;;11.30;99.90;;;;;;2093463;28;20031;-68
2024/04/02 01:13:47;;;;;;;1.67;0.73;;;11.30;99.90;;;;;;2094344;28;20040;-68
2024/04/02 01:14:47;;;;;;;2.13;1.05;;;11.30;99.90;;;;;;2094752;28;21212;-68
2024/04/02 01:15:48;;;;;;;5.05;0.95;;;11.30;99.90;;;;;;2095207;28;20448;-68
2024/04/02 01:16:48;;;;;;;2.63;0.88;;;11.30;99.90;;;;;;2095854;28;20025;-67
2024/04/02 01:17:49;;;;;;;2.53;1.02;;;11.30;99.90;;;;;;2094916;28;20037;-70
2024/04/02 01:18:49;;;;;;;1.98;0.80;;;11.30;99.90;;;;;;2092763;28;20024;-67
2024/04/02 01:19:50;;;;;;;1.85;0.90;;;11.30;99.90;;;;;;2094403;28;20056;-68
2024/04/02 01:20:51;;;;;;;2.45;1.00;;;11.30;99.90;;;;;;2093732;28;20048;-68
2024/04/02 01:21:52;;;;;;;2.65;1.13;;;11.20;99.90;;;;;;2086076;28;20031;-68
2024/04/02 01:22:53;;;;;;;2.72;1.25;;;11.30;99.90;;;;;;2086911;28;20070;-68
2024/04/02 01:23:53;;;;;;;4.10;0.98;;;11.20;99.90;;;;;;2084964;28;20033;-68
2024/04/02 01:25:00;;;;;;;2.65;0.90;;;11.20;99.90;;;;;;2085736;28;20017;-68
2024/04/02 01:26:00;;;;;;;2.58;1.10;;;11.30;99.90;;;;;;2088053;28;20025;-68
2024/04/02 01:27:02;;;;;;;3.45;1.15;;;11.20;99.90;;;;;;2087716;28;20025;-68
2024/04/02 01:28:03;;;;;;;3.97;0.88;;;11.20;99.90;;;;;;2085530;28;20382;-68
2024/04/02 01:29:04;;;;;;;1.45;0.90;;;11.20;99.90;;;;;;2077438;28;20025;-67
2024/04/02 01:30:05;;;;;;;2.38;0.80;;;11.20;99.90;;;;;;2079281;28;20719;-68
2024/04/02 01:31:05;;;;;;;2.47;1.10;;;11.20;99.90;;;;;;2086349;28;20029;-68
2024/04/02 01:32:06;;;;;;;1.45;0.95;;;11.10;99.90;;;;;;2086219;28;20473;-68
2024/04/02 01:33:06;;;;;;;2.45;1.10;;;11.10;99.90;;;;;;2085843;28;20025;-68
2024/04/02 01:34:07;;;;;;;1.30;0.98;;;11.10;99.90;;;;;;2083840;28;20033;-68
2024/04/02 01:35:08;;;;;;;2.88;1.30;;;11.10;99.90;;;;;;2085262;28;20037;-68
2024/04/02 01:36:08;;;;;;;2.15;1.17;;;11.10;99.90;;;;;;2084547;28;20033;-68
2024/04/02 01:37:09;;;;;;;1.65;0.80;;;11.10;99.90;;;;;;2084601;28;20030;-68
2024/04/02 01:38:09;;;;;;;4.32;1.00;;;11.10;99.90;;;;;;2085311;28;20021;-68
2024/04/02 01:39:10;;;;;;;1.67;0.75;;;11.10;99.90;;;;;;2083790;28;20489;-68
2024/04/02 01:40:10;;;;;;;3.38;1.10;;;11.10;99.90;;;;;;2088021;28;20029;-68
2024/04/02 01:41:11;;;;;;;1.77;0.90;;;11.10;99.90;;;;;;2087363;28;20051;-68
2024/04/02 01:42:12;;;;;;;3.13;1.10;;;11.00;99.90;;;;;;2083941;28;20049;-68
2024/04/02 01:43:12;;;;;;;3.30;1.08;;;11.00;99.90;;;;;;2084405;28;20116;-68
2024/04/02 01:44:13;;;;;;;2.97;0.95;;;11.00;99.90;;;;;;2085780;28;20373;-68
2024/04/02 01:45:13;;;;;;;3.63;1.20;;;11.00;99.90;;;;;;2085729;28;20029;-67
2024/04/02 01:46:15;;;;;;;2.20;0.73;;;11.00;99.90;;;;;;2087258;28;20024;-67
2024/04/02 01:47:15;;;;;;;2.45;0.80;;;11.00;99.90;;;;;;2079071;28;20599;-70
2024/04/02 01:48:16;;;;;;;2.38;1.35;;;11.00;99.90;;;;;;2071079;28;20040;-67
2024/04/02 01:49:16;;;;;;;2.67;0.80;;;10.90;99.90;;;;;;2077820;28;20044;-70
2024/04/02 01:50:17;;;;;;;5.05;1.17;;;10.90;99.90;;;;;;2083898;28;20043;-68
2024/04/02 01:51:17;;;;;;;4.55;1.02;;;10.90;99.90;;;;;;2086755;28;20481;-68
2024/04/02 01:52:18;;;;;;;2.70;1.02;;;10.90;99.90;;;;;;2085443;28;20129;-68
2024/04/02 01:53:18;;;;;;;3.15;0.70;;;10.90;99.90;;;;;;2085260;28;20040;-68
2024/04/02 01:54:19;;;;;;;1.10;0.82;;;10.90;99.90;;;;;;2087622;28;20481;-68
2024/04/02 01:55:19;;;;;;;3.72;0.88;;;10.90;99.90;;;;;;2085359;28;20044;-68
2024/04/02 01:56:20;;;;;;;2.25;0.90;;;10.90;99.90;;;;;;2086881;28;20377;-67
2024/04/02 01:57:20;;;;;;;1.90;0.95;;;10.90;99.90;;;;;;2080132;28;20124;-68
2024/04/02 01:58:21;;;;;;;1.48;0.70;;;10.80;99.90;;;;;;2078832;28;20033;-68
2024/04/02 01:59:22;;;;;;;2.47;0.82;;;10.80;99.90;;;;;;2085954;28;20036;-68
2024/04/02 02:00:22;;;;;;;3.08;0.80;;;10.80;99.90;;;;;;2085883;28;20025;-68
2024/04/02 02:01:23;;;;;;;3.38;0.90;;;10.80;99.90;;;;;;2086250;28;20024;-68
2024/04/02 02:02:23;;;;;;;3.40;0.82;;;10.80;99.90;;;;;;2086797;28;20024;-68
2024/04/02 02:03:24;;;;;;;2.83;1.10;;;10.80;99.90;;;;;;2085101;28;20547;-68
2024/04/02 02:04:24;;;;;;;2.08;0.98;;;10.80;99.90;;;;;;2086626;28;20046;-68
2024/04/02 02:05:25;;;;;;;1.98;0.80;;;10.80;99.90;;;;;;2086848;28;20073;-68
2024/04/02 02:06:25;;;;;;;2.83;1.00;;;10.80;99.90;;;;;;2076931;28;20029;-67
2024/04/02 02:07:26;;;;;;;2.78;0.80;;;10.80;99.90;;;;;;2077763;28;20124;-68
2024/04/02 02:08:27;;;;;;;3.67;1.00;;;10.80;99.90;;;;;;2083477;28;20546;-67
2024/04/02 02:09:27;;;;;;;2.78;0.98;;;10.80;99.90;;;;;;2084193;28;20116;-68
2024/04/02 02:10:28;;;;;;;3.33;1.00;;;10.80;99.90;;;;;;2084440;28;20511;-67
2024/04/02 02:11:28;;;;;;;3.88;0.77;;;10.70;99.90;;;;;;2083751;28;20538;-67
2024/04/02 02:12:29;;;;;;;2.53;0.82;;;10.80;99.90;;;;;;2084450;28;20045;-68
2024/04/02 02:13:34;;;;;;;1.98;0.93;;;10.80;99.90;;;;;;2084835;28;20053;-68
2024/04/02 02:14:34;;;;;;;3.13;1.13;;;10.80;99.90;;;;;;2084767;28;20037;-67
2024/04/02 02:15:35;;;;;;;2.47;0.90;;;10.80;99.90;;;;;;2085162;28;20032;-68
2024/04/02 02:16:36;;;;;;;2.30;0.90;;;10.80;99.90;;;;;;2085634;28;20404;-68
2024/04/02 02:17:36;;;;;;;2.72;0.90;;;10.80;99.90;;;;;;2085215;28;20114;-68
2024/04/02 02:18:37;;;;;;;2.22;1.05;;;10.80;99.90;;;;;;2085348;28;20029;-68
2024/04/02 02:19:37;;;;;;;0.90;0.80;;;10.80;99.90;;;;;;2085648;28;20115;-68
2024/04/02 02:20:38;;;;;;;3.78;1.00;;;10.80;99.90;;;;;;2084837;28;20535;-68
2024/04/02 02:21:38;;;;;;;3.22;0.70;;;10.80;99.90;;;;;;2091300;28;20059;-68
2024/04/02 02:22:39;;;;;;;2.20;0.85;;;10.80;99.90;;;;;;2093368;28;20130;-68
2024/04/02 02:23:44;;;;;;;3.55;0.90;;;10.80;99.90;;;;;;2092771;28;20028;-68
2024/04/02 02:24:45;;;;;;;1.98;0.85;;;10.80;99.90;;;;;;2094529;28;20039;-69
2024/04/02 02:25:45;;;;;;;2.60;0.98;;;10.80;99.90;;;;;;2094950;28;20025;-68
2024/04/02 02:26:46;;;;;;;2.67;1.15;;;10.80;99.90;;;;;;2096363;28;20119;-68
2024/04/02 02:27:47;;;;;;;5.50;1.25;;;10.80;99.90;;;;;;2091973;28;20024;-68
2024/04/02 02:28:47;;;;;;;3.17;0.98;;;10.80;99.90;;;;;;2093487;28;20044;-67
2024/04/02 02:29:48;;;;;;;2.47;1.00;;;10.80;99.90;;;;;;2095209;28;20032;-68
2024/04/02 02:30:49;;;;;;;1.30;0.80;;;10.80;99.90;;;;;;2090766;28;20023;-68
2024/04/02 02:31:50;;;;;;;2.45;1.10;;;10.80;99.90;;;;;;2094117;28;20033;-68
2024/04/02 02:32:50;;;;;;;3.08;0.98;;;10.80;99.90;;;;;;2091887;28;20024;-68
2024/04/02 02:33:51;;;;;;;1.77;0.70;;;10.90;99.90;;;;;;2092383;28;20185;-68
2024/04/02 02:34:51;;;;;;;2.80;0.82;;;10.80;99.90;;;;;;2091969;28;20029;-68
2024/04/02 02:35:53;;;;;;;3.80;1.00;;;10.80;99.90;;;;;;2092724;28;20174;-68
2024/04/02 02:36:53;;;;;;;4.10;1.02;;;10.80;99.90;;;;;;2093736;28;20032;-68
2024/04/02 02:37:54;;;;;;;2.25;1.00;;;10.90;99.90;;;;;;2094822;28;20531;-68
2024/04/02 02:38:54;;;;;;;2.38;0.95;;;10.90;99.90;;;;;;2093621;28;20040;-68
2024/04/02 02:39:56;;;;;;;3.40;1.17;;;10.90;99.90;;;;;;2094602;28;20041;-70
2024/04/02 02:41:03;;;;;;;3.53;1.20;;;10.90;99.90;;;;;;2095618;28;20040;-67
2024/04/02 02:42:04;;;;;;;5.50;1.10;;;10.90;99.90;;;;;;2093344;28;20083;-68
2024/04/02 02:43:04;;;;;;;2.58;0.80;;;10.90;99.90;;;;;;2094203;28;20025;-68
2024/04/02 02:44:05;;;;;;;1.42;0.77;;;10.90;99.90;;;;;;2094402;28;20073;-68
2024/04/02 02:45:06;;;;;;;4.10;1.00;;;10.90;99.90;;;;;;2092257;28;20025;-68
2024/04/02 02:46:07;;;;;;;3.08;0.90;;;10.90;99.90;;;;;;2095102;28;20511;-68
2024/04/02 02:47:08;;;;;;;2.50;0.80;;;10.90;99.90;;;;;;2092658;28;20489;-68
2024/04/02 02:48:08;;;;;;;2.63;0.88;;;10.90;99.90;;;;;;2092788;28;20422;-68
2024/04/02 02:49:09;;;;;;;2.03;1.17;;;10.90;99.90;;;;;;2092984;28;20020;-68
2024/04/02 02:50:09;;;;;;;3.20;1.20;;;10.90;99.90;;;;;;2093621;28;20096;-68
2024/04/02 02:51:10;;;;;;;1.92;0.90;;;10.90;99.90;;;;;;2094365;28;20031;-68
2024/04/02 02:52:11;;;;;;;2.50;0.90;;;10.90;99.90;;;;;;2095296;28;20085;-68
2024/04/02 02:53:12;;;;;;;4.78;1.27;;;11.00;99.90;;;;;;2093381;28;20029;-68
2024/04/02 02:54:12;;;;;;;2.40;0.90;;;10.90;99.90;;;;;;2094297;28;20115;-68
2024/04/02 02:55:13;;;;;;;3.20;1.10;;;11.00;99.90;;;;;;2093558;28;20028;-68
2024/04/02 02:56:17;;;;;;;3.22;0.93;;;11.00;99.90;;;;;;2093723;28;20095;-68
2024/04/02 02:57:17;;;;;;;3.25;0.90;;;10.90;99.90;;;;;;2094131;28;20042;-68
2024/04/02 02:58:19;;;;;;;3.80;1.20;;;11.00;99.90;;;;;;2093418;28;20043;-68
2024/04/02 02:59:19;;;;;;;2.65;0.95;;;10.90;99.90;;;;;;2092602;28;20061;-68
2024/04/02 03:00:20;;;;;;;2.58;1.17;;;10.90;99.90;;;;;;2094728;28;20024;-68
2024/04/02 03:01:20;;;;;;;1.77;0.90;;;11.00;99.90;;;;;;2093099;28;20020;-68
2024/04/02 03:02:21;;;;;;;7.25;1.30;;;11.00;99.90;;;;;;2093364;28;20139;-68
2024/04/02 03:03:21;;;;;;;4.03;1.13;;;11.00;99.90;;;;;;2091941;28;20945;-68
2024/04/02 03:04:22;;;;;;;2.58;0.98;;;11.00;99.90;;;;;;2093729;28;20024;-68
2024/04/02 03:05:23;;;;;;;4.10;1.00;;;11.00;99.90;;;;;;2094058;28;20020;-68
2024/04/02 03:06:23;;;;;;;3.53;0.90;;;11.00;99.90;;;;;;2094742;28;20397;-68
2024/04/02 03:07:24;;;;;;;3.17;1.00;;;11.00;99.90;;;;;;2094397;28;20024;-68
2024/04/02 03:08:24;;;;;;;4.07;0.90;;;11.00;99.90;;;;;;2092044;28;20060;-68
2024/04/02 03:09:25;;;;;;;2.05;1.10;;;11.00;99.90;;;;;;2092321;28;20033;-68
2024/04/02 03:10:25;;;;;;;3.17;1.02;;;11.00;99.90;;;;;;2095393;28;20032;-68
2024/04/02 03:11:26;;;;;;;2.05;1.10;;;11.00;99.90;;;;;;2093117;28;20052;-68
2024/04/02 03:12:27;;;;;;;2.58;0.90;;;11.00;99.90;;;;;;2093101;28;20028;-67
2024/04/02 03:13:27;;;;;;;1.98;0.98;;;11.00;99.90;;;;;;2095082;28;20060;-68
2024/04/02 03:14:31;;;;;;;1.83;1.00;;;11.00;99.90;;;;;;2092453;28;20067;-68
2024/04/02 03:15:38;;;;;;;3.83;0.90;;;11.00;99.90;;;;;;2092772;28;20104;-68
2024/04/02 03:16:39;;;;;;;2.67;0.98;;;11.00;99.90;;;;;;2094184;28;20538;-68
2024/04/02 03:17:39;;;;;;;1.23;0.80;;;10.90;99.90;;;;;;2093401;28;20534;-68
2024/04/02 03:18:40;;;;;;;2.47;1.00;;;11.00;99.90;;;;;;2093278;28;20089;-68
2024/04/02 03:19:41;;;;;;;2.10;0.95;;;11.00;99.90;;;;;;2094072;28;20024;-68
2024/04/02 03:20:41;;;;;;;6.22;1.30;;;11.00;99.90;;;;;;2091603;28;20024;-68
2024/04/02 03:21:42;;;;;;;5.05;1.00;;;11.00;99.90;;;;;;2087228;28;20096;-68
2024/04/02 03:22:42;;;;;;;3.67;1.27;;;11.00;99.90;;;;;;2086100;28;20100;-68
2024/04/02 03:23:43;;;;;;;3.30;1.00;;;11.00;99.90;;;;;;2085602;28;20055;-68
2024/04/02 03:24:44;;;;;;;1.70;1.00;;;10.90;99.90;;;;;;2085105;28;20040;-68
2024/04/02 03:25:52;;;;;;;4.82;1.00;;;11.00;99.90;;;;;;2076875;28;20026;-68
2024/04/02 03:26:52;;;;;;;4.97;1.20;;;11.00;99.90;;;;;;2087259;28;20033;-68
2024/04/02 03:27:53;;;;;;;1.85;0.80;;;10.90;99.90;;;;;;2081468;28;20816;-68
2024/04/02 03:28:54;;;;;;;2.30;1.17;;;10.90;99.90;;;;;;2082174;28;20021;-68
2024/04/02 03:29:54;;;;;;;2.08;1.05;;;10.90;99.90;;;;;;2084975;28;20067;-68
2024/04/02 03:31:01;;;;;;;3.95;1.00;;;11.00;99.90;;;;;;2086391;28;20063;-68
2024/04/02 03:32:02;;;;;;;2.30;1.15;;;10.90;99.90;;;;;;2086128;28;20493;-68
2024/04/02 03:33:03;;;;;;;3.10;1.10;;;10.90;99.90;;;;;;2086499;28;20041;-68
2024/04/02 03:34:04;;;;;;;3.10;1.05;;;11.00;99.90;;;;;;2085920;28;21486;-68
2024/04/02 03:35:05;;;;;;;2.13;1.00;;;10.90;99.90;;;;;;2084292;28;20075;-68
2024/04/02 03:36:07;;;;;;;6.18;1.42;;;10.90;99.90;;;;;;2078056;28;20029;-68
2024/04/02 03:37:07;;;;;;;2.60;1.10;;;10.90;99.90;;;;;;2079203;28;20029;-68
2024/04/02 03:38:08;;;;;;;1.77;0.95;;;10.90;99.90;;;;;;2083310;28;20028;-68
2024/04/02 03:39:09;;;;;;;2.78;1.02;;;10.90;99.90;;;;;;2077519;28;20033;-68
2024/04/02 03:40:10;;;;;;;3.63;1.10;;;10.90;99.90;;;;;;2083644;28;20107;-68
2024/04/02 03:41:12;;;;;;;3.78;1.65;;;10.90;99.90;;;;;;2084925;28;20044;-68
2024/04/02 03:42:13;;;;;;;3.80;1.30;;;10.90;99.90;;;;;;2084578;28;20025;-68
2024/04/02 03:43:13;;;;;;;4.65;1.10;;;10.90;99.90;;;;;;2086922;28;20536;-68
2024/04/02 03:44:15;;;;;;;2.13;0.65;;;10.90;99.90;;;;;;2085966;28;20044;-68
2024/04/02 03:45:16;;;;;;;3.72;1.10;;;10.90;99.90;;;;;;2077489;28;20040;-68
2024/04/02 03:46:16;;;;;;;2.45;1.10;;;10.90;99.90;;;;;;2076774;28;20037;-68
2024/04/02 03:47:17;;;;;;;3.58;1.17;;;10.90;99.90;;;;;;2085380;28;20392;-68
2024/04/02 03:48:17;;;;;;;3.15;0.88;;;10.90;99.90;;;;;;2080772;28;20053;-68
2024/04/02 03:49:18;;;;;;;2.35;0.90;;;11.00;99.90;;;;;;2083589;28;20520;-68
2024/04/02 03:50:18;;;;;;;2.58;1.00;;;10.90;99.90;;;;;;2085753;28;20021;-68
2024/04/02 03:51:19;;;;;;;5.95;1.20;;;10.90;99.90;;;;;;2083233;28;20025;-67
2024/04/02 03:52:20;;;;;;;4.55;1.10;;;10.90;99.90;;;;;;2082463;28;20548;-69
2024/04/02 03:53:20;;;;;;;2.55;1.05;;;10.90;99.90;;;;;;2086272;28;20035;-69
2024/04/02 03:54:21;;;;;;;3.85;0.93;;;10.90;99.90;;;;;;2087049;28;20021;-69
2024/04/02 03:55:21;;;;;;;2.83;1.00;;;10.90;99.90;;;;;;2083614;28;20033;-68
2024/04/02 03:56:22;;;;;;;2.40;0.88;;;10.90;99.90;;;;;;2085349;28;20021;-69
2024/04/02 03:57:22;;;;;;;2.63;0.90;;;10.90;99.90;;;;;;2086043;28;20041;-68
2024/04/02 03:58:24;;;;;;;1.60;0.90;;;10.80;99.90;;;;;;2085893;28;20466;-68
2024/04/02 03:59:24;;;;;;;2.67;1.20;;;10.90;99.90;;;;;;2083869;28;20116;-68
2024/04/02 04:00:25;;;;;;;2.67;1.08;;;10.90;99.90;;;;;;2084777;28;20045;-68
2024/04/02 04:01:26;;;;;;;3.03;0.90;;;10.80;99.90;;;;;;2085693;28;20289;-68
2024/04/02 04:02:26;;;;;;;4.07;1.08;;;10.80;99.90;;;;;;2083866;28;20021;-69
2024/04/02 04:03:27;;;;;;;3.78;1.25;;;10.80;99.90;;;;;;2085263;28;20744;-68
2024/04/02 04:04:28;;;;;;;3.08;1.05;;;10.80;99.90;;;;;;2086769;28;20044;-68
2024/04/02 04:05:29;;;;;;;2.00;0.70;;;10.80;99.90;;;;;;2085621;28;20052;-68
2024/04/02 04:06:29;;;;;;;3.50;1.08;;;10.80;99.90;;;;;;2079246;28;20536;-68
2024/04/02 04:07:30;;;;;;;3.70;1.27;;;10.80;99.90;;;;;;2084235;28;20068;-68
2024/04/02 04:08:32;;;;;;;1.70;1.20;;;10.80;99.90;;;;;;2083947;28;20107;-68
2024/04/02 04:09:32;;;;;;;3.50;1.10;;;10.80;99.90;;;;;;2084787;28;20040;-69
2024/04/02 04:10:37;;;;;;;2.88;1.33;;;10.80;99.90;;;;;;2085668;28;20123;-69
2024/04/02 04:11:37;;;;;;;6.30;1.40;;;10.80;99.90;;;;;;2083570;28;20068;-69
2024/04/02 04:12:38;;;;;;;2.60;1.05;;;10.80;99.90;;;;;;2086263;28;20036;-69
2024/04/02 04:13:38;;;;;;;3.78;1.63;;;10.80;99.90;;;;;;2085023;28;20525;-68
2024/04/02 04:14:39;;;;;;;4.07;1.13;;;10.90;99.90;;;;;;2086029;28;20033;-69
2024/04/02 04:15:39;;;;;;;4.22;1.45;;;10.90;99.90;;;;;;2086516;28;20114;-69
2024/04/02 04:16:40;;;;;;;1.50;0.80;;;10.80;99.90;;;;;;2076510;28;20029;-69
2024/04/02 04:17:40;;;;;;;3.28;1.10;;;10.90;99.90;;;;;;2077444;28;20033;-69
2024/04/02 04:18:41;;;;;;;3.75;1.38;;;10.80;99.90;;;;;;2085165;28;20036;-69
2024/04/02 04:19:41;;;;;;;3.80;1.17;;;10.90;99.90;;;;;;2082328;28;20068;-68
2024/04/02 04:20:54;;;;;;;4.60;1.10;;;10.90;99.90;;;;;;2085150;28;20028;-69
2024/04/02 04:21:55;;;;;;;4.20;1.20;;;10.90;99.90;;;;;;2085054;28;20429;-69
2024/04/02 04:22:55;;;;;;;3.03;0.88;;;10.80;99.90;;;;;;2083655;28;20033;-69
2024/04/02 04:23:56;;;;;;;3.22;1.10;;;10.80;99.90;;;;;;2085362;28;20029;-68
2024/04/02 04:24:58;;;;;;;2.88;1.15;;;10.80;99.90;;;;;;2084707;28;20033;-68
2024/04/02 04:26:00;;;;;;;2.45;1.10;;;10.80;99.90;;;;;;2086915;28;20064;-67
2024/04/02 04:27:00;;;;;;;3.28;1.40;;;10.90;99.90;;;;;;2090230;28;20496;-67
2024/04/02 04:28:01;;;;;;;4.68;1.00;;;10.80;99.90;;;;;;2086877;28;20064;-68
2024/04/02 04:29:02;;;;;;;2.17;1.10;;;10.90;99.90;;;;;;2087293;28;20025;-68
2024/04/02 04:30:06;;;;;;;2.30;1.10;;;10.90;99.90;;;;;;2084679;28;20096;-68
2024/04/02 04:31:09;;;;;;;3.65;1.23;;;10.80;99.90;;;;;;2076970;28;20029;-68
2024/04/02 04:32:12;;;;;;;6.15;0.93;;;10.80;99.90;;;;;;2078577;28;20571;-68
2024/04/02 04:33:13;;;;;;;2.45;1.08;;;10.90;99.90;;;;;;2088186;28;20135;-69
2024/04/02 04:34:14;;;;;;;2.42;1.10;;;10.90;99.90;;;;;;2085352;28;20021;-69
2024/04/02 04:35:15;;;;;;;2.50;1.20;;;10.90;99.90;;;;;;2087912;28;20049;-68
2024/04/02 04:36:15;;;;;;;3.30;1.10;;;10.90;99.90;;;;;;2085924;28;20025;-68
2024/04/02 04:37:16;;;;;;;3.72;1.23;;;10.90;99.90;;;;;;2086714;28;20057;-69
2024/04/02 04:38:17;;;;;;;4.57;1.48;;;10.80;99.90;;;;;;2087254;28;20037;-69
2024/04/02 04:39:17;;;;;;;2.83;1.00;;;10.90;99.90;;;;;;2085862;28;20100;-69
2024/04/02 04:40:18;;;;;;;1.70;0.98;;;10.90;99.90;;;;;;2087194;28;20100;-69
2024/04/02 04:41:18;;;;;;;1.85;1.23;;;10.90;99.90;;;;;;2078104;28;20385;-68
2024/04/02 04:42:19;;;;;;;2.22;1.20;;;10.90;99.90;;;;;;2079047;28;20033;-69
2024/04/02 04:43:20;;;;;;;2.88;1.05;;;10.90;99.90;;;;;;2088616;28;20470;-69
2024/04/02 04:44:20;;;;;;;2.95;1.20;;;10.90;99.90;;;;;;2086447;28;20047;-69
2024/04/02 04:45:21;;;;;;;4.43;1.30;;;10.90;99.90;;;;;;2087597;28;20037;-70
2024/04/02 04:46:21;;;;;;;2.40;1.30;;;10.90;99.90;;;;;;2086614;28;20539;-68
2024/04/02 04:47:23;;;;;;;4.80;1.25;;;10.90;99.90;;;;;;2084406;28;20084;-68
2024/04/02 04:48:24;;;;;;;2.05;1.23;;;10.90;99.90;;;;;;2087012;28;20064;-68
2024/04/02 04:49:24;;;;;;;5.35;1.10;;;10.90;99.90;;;;;;2086926;28;20029;-68
2024/04/02 04:50:25;;;;;;;2.90;1.40;;;10.90;99.90;;;;;;2085342;28;20082;-69
2024/04/02 04:51:26;;;;;;;2.22;1.02;;;10.90;99.90;;;;;;2086147;28;20466;-68
2024/04/02 04:52:26;;;;;;;5.43;1.40;;;10.90;99.90;;;;;;2089012;28;20074;-68
2024/04/02 04:53:28;;;;;;;4.00;1.20;;;10.90;99.90;;;;;;2086529;28;20486;-69
2024/04/02 04:54:28;;;;;;;2.97;1.23;;;10.90;99.90;;;;;;2088303;28;20616;-68
2024/04/02 04:55:32;;;;;;;4.68;1.17;;;10.90;99.90;;;;;;2086707;28;20435;-68
2024/04/02 04:56:33;;;;;;;4.00;1.00;;;10.90;99.90;;;;;;2087246;28;20029;-68
2024/04/02 04:57:33;;;;;;;2.20;1.10;;;10.90;99.90;;;;;;2087890;28;20470;-68
2024/04/02 04:58:35;;;;;;;2.80;1.20;;;11.00;99.90;;;;;;2085458;28;20108;-68
2024/04/02 04:59:36;;;;;;;3.50;1.20;;;11.00;99.90;;;;;;2085534;28;20036;-68
2024/04/02 05:00:36;;;;;;;3.42;0.88;;;11.00;99.90;;;;;;2088492;28;20040;-68
2024/04/02 05:01:37;;;;;;;4.25;1.30;;;11.00;99.90;;;;;;2087123;28;20033;-68
2024/04/02 05:02:38;;;;;;;3.83;1.30;;;11.00;99.90;;;;;;2087435;28;20033;-68
2024/04/02 05:03:38;;;;;;;4.35;1.60;;;11.00;99.90;;;;;;2086219;28;20029;-68
2024/04/02 05:04:39;;;;;;;1.60;1.08;;;11.00;99.90;;;;;;2086968;28;20028;-68
2024/04/02 05:05:39;;;;;;;3.97;1.63;;;11.00;99.90;;;;;;2088241;28;20017;-69
2024/04/02 05:06:42;;;;;;;4.13;1.35;;;11.00;99.90;;;;;;2088151;28;20049;-68
2024/04/02 05:07:56;;;;;;;4.55;1.65;;;11.00;99.90;;;;;;2085507;28;20537;-68
2024/04/02 05:08:56;;;;;;;3.55;1.30;;;11.00;99.90;;;;;;2085169;28;20059;-68
2024/04/02 05:09:57;;;;;;;3.72;1.50;;;11.00;99.90;;;;;;2086320;28;20048;-68
2024/04/02 05:10:58;;;;;;;2.63;1.27;;;11.00;99.90;;;;;;2083541;28;20477;-68
2024/04/02 05:11:58;;;;;;;2.80;0.95;;;11.10;99.90;;;;;;2081438;28;20033;-68
2024/04/02 05:12:59;;;;;;;3.60;1.15;;;11.00;99.90;;;;;;2086468;28;20037;-68
2024/04/02 05:13:59;;;;;;;4.18;1.38;;;11.10;99.90;;;;;;2083931;28;20065;-68
2024/04/02 05:14:59;;;;;;;1.42;1.10;;;11.00;99.90;;;;;;2080133;28;20036;-68
2024/04/02 05:16:01;;;;;;;3.78;1.30;;;11.10;99.90;;;;;;2083827;28;20568;-69
2024/04/02 05:17:02;;;;;;;8.13;1.35;;;11.10;99.90;;;;;;2086212;28;20026;-68
2024/04/02 05:18:03;;;;;;;3.55;1.42;;;11.10;99.90;;;;;;2087089;28;20021;-68